createdAt,value
2023-03-27T00:01:08.483Z,2.50
2023-03-27T00:03:41.076Z,2.78
2023-03-27T00:08:45.374Z,2.22
2023-03-27T00:11:17.570Z,2.58
2023-03-27T00:13:50.728Z,2.88
2023-03-27T00:16:22.952Z,2.35
2023-03-27T00:18:54.879Z,3.00
2023-03-27T00:21:24.859Z,3.58
2023-03-27T00:23:57.730Z,2.70
2023-03-27T00:26:31.003Z,2.85
2023-03-27T00:29:08.042Z,2.80
2023-03-27T00:31:45.698Z,3.05
2023-03-27T00:34:18.124Z,2.67
2023-03-27T00:36:51.739Z,2.53
2023-03-27T00:39:21.929Z,2.97
2023-03-27T00:41:52.437Z,3.03
2023-03-27T00:44:36.425Z,2.75
2023-03-27T00:47:13.282Z,2.53
2023-03-27T00:49:52.279Z,2.55
2023-03-27T00:52:32.064Z,2.90
2023-03-27T00:55:14.636Z,2.50
2023-03-27T00:57:47.153Z,2.40
2023-03-27T01:00:20.542Z,2.50
2023-03-27T01:02:52.803Z,2.08
2023-03-27T01:05:22.688Z,3.17
2023-03-27T01:08:00.838Z,2.65
2023-03-27T01:11:03.036Z,2.50
2023-03-27T01:13:54.461Z,2.47
2023-03-27T01:16:34.753Z,2.25
2023-03-27T01:19:23.009Z,2.08
2023-03-27T01:22:22.460Z,2.28
2023-03-27T01:25:32.874Z,2.00
2023-03-27T01:28:55.717Z,2.05
2023-03-27T01:31:37.306Z,2.20
2023-03-27T01:35:01.320Z,2.22
2023-03-27T01:38:09.007Z,1.95
2023-03-27T01:40:49.562Z,1.95
2023-03-27T01:43:34.325Z,2.40
2023-03-27T01:46:22.584Z,1.88
2023-03-27T01:49:13.725Z,1.83
2023-03-27T01:51:51.480Z,1.73
2023-03-27T01:54:35.930Z,2.30
2023-03-27T01:57:38.744Z,1.67
2023-03-27T02:00:52.453Z,2.20
2023-03-27T02:03:53.771Z,1.90
2023-03-27T02:06:41.467Z,1.73
2023-03-27T02:09:23.470Z,1.83
2023-03-27T02:12:03.459Z,1.77
2023-03-27T02:14:39.603Z,2.20
2023-03-27T02:17:17.493Z,1.90
2023-03-27T02:19:59.122Z,2.50
2023-03-27T02:22:38.057Z,2.30
2023-03-27T02:25:29.584Z,2.35
2023-03-27T02:28:13.901Z,2.35
2023-03-27T02:30:43.391Z,1.98
2023-03-27T02:33:28.704Z,2.30
2023-03-27T02:36:16.971Z,1.75
2023-03-27T02:39:03.081Z,1.45
2023-03-27T02:42:00.563Z,1.80
2023-03-27T02:44:53.601Z,1.65
2023-03-27T02:47:36.577Z,1.60
2023-03-27T02:50:23.023Z,1.88
2023-03-27T02:53:02.792Z,2.03
2023-03-27T02:55:38.996Z,1.73
2023-03-27T02:58:18.822Z,1.48
2023-03-27T03:01:17.273Z,1.35
2023-03-27T03:04:42.173Z,1.77
2023-03-27T03:07:35.110Z,1.63
2023-03-27T03:10:08.481Z,1.52
2023-03-27T03:12:44.103Z,1.55
2023-03-27T03:15:13.354Z,1.20
2023-03-27T03:17:45.923Z,1.70
2023-03-27T03:20:17.443Z,1.27
2023-03-27T03:22:50.051Z,1.45
2023-03-27T03:25:21.621Z,1.17
2023-03-27T03:27:58.559Z,1.42
2023-03-27T03:30:38.011Z,1.60
2023-03-27T03:33:12.507Z,1.70
2023-03-27T03:35:52.235Z,1.35
2023-03-27T03:38:37.656Z,1.27
2023-03-27T03:41:19.009Z,1.60
2023-03-27T03:43:55.456Z,1.20
2023-03-27T03:46:25.114Z,1.63
2023-03-27T03:48:54.798Z,1.73
2023-03-27T03:51:24.325Z,1.23
2023-03-27T03:53:57.595Z,1.38
2023-03-27T03:56:28.394Z,1.33
2023-03-27T03:58:57.434Z,1.63
2023-03-27T04:01:28.811Z,1.50
2023-03-27T04:04:06.313Z,1.65
2023-03-27T04:06:58.618Z,1.33
2023-03-27T04:09:35.226Z,1.35
2023-03-27T04:12:19.340Z,1.50
2023-03-27T04:15:00.901Z,1.45
2023-03-27T04:17:53.207Z,1.65
2023-03-27T04:20:22.460Z,2.63
2023-03-27T04:22:54.231Z,2.10
2023-03-27T04:25:29.140Z,2.03
2023-03-27T04:28:02.742Z,1.88
2023-03-27T04:30:44.563Z,2.40
2023-03-27T04:33:32.231Z,1.80
2023-03-27T04:36:09.759Z,1.80
2023-03-27T04:38:57.219Z,1.67
2023-03-27T04:41:30.305Z,1.40
2023-03-27T04:44:01.786Z,1.73
2023-03-27T04:46:33.336Z,1.90
2023-03-27T04:49:13.847Z,1.35
2023-03-27T04:51:52.869Z,1.55
2023-03-27T04:54:23.673Z,1.20
2023-03-27T04:56:53.853Z,1.58
2023-03-27T04:59:33.508Z,1.60
2023-03-27T05:02:31.722Z,1.40
2023-03-27T05:05:10.493Z,1.30
2023-03-27T05:07:50.087Z,1.65
2023-03-27T05:10:22.765Z,1.65
2023-03-27T05:12:58.663Z,1.35
2023-03-27T05:15:34.133Z,1.48
2023-03-27T05:18:10.557Z,1.40
2023-03-27T05:20:41.266Z,1.95
2023-03-27T05:23:18.450Z,1.67
2023-03-27T05:25:59.751Z,2.15
2023-03-27T05:28:40.226Z,1.60
2023-03-27T05:31:14.764Z,1.40
2023-03-27T05:34:06.718Z,1.50
2023-03-27T05:36:40.525Z,1.20
2023-03-27T05:39:17.546Z,1.55
2023-03-27T05:41:58.760Z,1.45
2023-03-27T05:44:36.310Z,1.50
2023-03-27T05:47:05.920Z,1.70
2023-03-27T05:49:49.968Z,1.40
2023-03-27T05:52:28.608Z,1.65
2023-03-27T05:55:07.145Z,1.58
2023-03-27T05:57:44.214Z,1.73
2023-03-27T06:00:14.776Z,1.73
2023-03-27T06:03:01.428Z,2.00
2023-03-27T06:05:55.451Z,2.00
2023-03-27T06:08:30.493Z,1.80
2023-03-27T06:11:02.458Z,2.42
2023-03-27T06:13:40.571Z,2.17
2023-03-27T06:16:16.123Z,2.00
2023-03-27T06:19:04.965Z,2.13
2023-03-27T06:21:46.688Z,2.55
2023-03-27T06:24:19.973Z,2.42
2023-03-27T06:26:57.074Z,2.47
2023-03-27T06:29:33.891Z,2.08
2023-03-27T06:32:05.359Z,2.33
2023-03-27T06:34:50.653Z,2.28
2023-03-27T06:38:00.614Z,2.05
2023-03-27T06:40:35.764Z,2.10
2023-03-27T06:43:29.218Z,2.53
2023-03-27T06:46:16.954Z,2.30
2023-03-27T06:49:16.602Z,2.00
2023-03-27T06:51:45.632Z,2.30
2023-03-27T06:54:15.216Z,2.55
2023-03-27T06:56:55.536Z,2.50
2023-03-27T07:02:01.982Z,2.80
2023-03-27T07:05:05.607Z,2.60
2023-03-27T07:07:46.047Z,2.83
2023-03-27T07:10:19.649Z,2.88
2023-03-27T07:12:54.897Z,2.83
2023-03-27T07:15:25.243Z,2.28
2023-03-27T07:18:03.406Z,2.90
2023-03-27T07:20:36.781Z,2.58
2023-03-27T07:23:17.565Z,2.58
2023-03-27T07:26:04.504Z,2.38
2023-03-27T07:29:00.137Z,3.00
2023-03-27T07:31:54.769Z,2.60
2023-03-27T07:34:23.592Z,2.15
2023-03-27T07:37:06.904Z,2.42
2023-03-27T07:39:43.521Z,1.90
2023-03-27T07:42:15.440Z,2.45
2023-03-27T07:45:10.062Z,2.00
2023-03-27T07:47:44.026Z,2.15
2023-03-27T07:50:22.444Z,1.90
2023-03-27T07:52:51.936Z,2.30
2023-03-27T07:55:24.225Z,1.90
2023-03-27T07:58:33.700Z,2.17
2023-03-27T08:01:29.709Z,2.45
2023-03-27T08:04:01.160Z,1.77
2023-03-27T08:06:31.253Z,1.75
2023-03-27T08:09:06.594Z,2.13
2023-03-27T08:11:40.188Z,2.42
2023-03-27T08:16:46.830Z,1.70
2023-03-27T08:19:19.211Z,2.13
2023-03-27T08:21:53.132Z,1.60
2023-03-27T08:24:23.809Z,1.90
2023-03-27T08:27:13.973Z,2.10
2023-03-27T08:29:46.652Z,2.00
2023-03-27T08:32:19.736Z,1.60
2023-03-27T08:34:51.075Z,1.88
2023-03-27T08:37:27.909Z,1.95
2023-03-27T08:40:31.375Z,1.80
2023-03-27T08:43:28.313Z,2.05
2023-03-27T08:46:07.941Z,1.92
2023-03-27T08:48:57.107Z,1.75
2023-03-27T08:51:39.124Z,1.60
2023-03-27T08:54:24.766Z,1.95
2023-03-27T08:57:00.381Z,1.85
2023-03-27T08:59:32.769Z,2.00
2023-03-27T09:02:02.772Z,1.50
2023-03-27T09:05:02.352Z,1.08
2023-03-27T09:07:41.318Z,1.00
2023-03-27T09:10:45.001Z,1.13
2023-03-27T09:13:50.789Z,1.50
2023-03-27T09:16:49.956Z,1.63
2023-03-27T09:19:53.040Z,1.40
2023-03-27T09:22:47.261Z,1.50
2023-03-27T09:25:31.311Z,1.70
2023-03-27T09:28:04.121Z,1.60
2023-03-27T09:33:41.772Z,1.95
2023-03-27T09:36:11.753Z,1.73
2023-03-27T09:38:51.087Z,2.30
2023-03-27T09:41:48.283Z,2.85
2023-03-27T09:44:31.942Z,1.70
2023-03-27T09:47:38.854Z,2.05
2023-03-27T09:50:29.398Z,1.25
2023-03-27T09:53:15.784Z,1.45
2023-03-27T09:55:55.759Z,1.60
2023-03-27T09:58:33.773Z,1.60
2023-03-27T10:01:20.281Z,2.92
2023-03-27T10:03:59.507Z,2.22
2023-03-27T10:06:50.492Z,2.25
2023-03-27T10:10:02.512Z,2.47
2023-03-27T10:12:42.061Z,2.33
2023-03-27T10:15:41.709Z,2.50
2023-03-27T10:18:28.396Z,2.20
2023-03-27T10:21:14.869Z,2.33
2023-03-27T10:23:50.138Z,2.25
2023-03-27T10:26:42.082Z,1.90
2023-03-27T10:29:35.353Z,1.75
2023-03-27T10:32:12.551Z,2.10
2023-03-27T10:34:59.824Z,2.35
2023-03-27T10:37:51.842Z,2.58
2023-03-27T10:40:39.379Z,3.17
2023-03-27T10:43:37.439Z,2.97
2023-03-27T10:46:18.089Z,3.42
2023-03-27T10:48:58.284Z,3.35
2023-03-27T10:51:56.323Z,3.53
2023-03-27T10:54:55.052Z,3.42
2023-03-27T10:57:34.813Z,3.63
2023-03-27T11:00:20.180Z,2.70
2023-03-27T11:03:20.789Z,2.55
2023-03-27T11:06:04.809Z,3.42
2023-03-27T11:08:53.593Z,2.75
2023-03-27T11:11:37.760Z,2.65
2023-03-27T11:14:18.276Z,2.97
2023-03-27T11:16:57.212Z,2.53
2023-03-27T11:19:57.227Z,2.30
2023-03-27T11:22:49.090Z,2.58
2023-03-27T11:25:50.611Z,1.92
2023-03-27T11:28:47.804Z,2.80
2023-03-27T11:31:41.586Z,2.15
2023-03-27T11:34:29.520Z,2.10
2023-03-27T11:37:45.640Z,2.60
2023-03-27T11:40:33.249Z,2.00
2023-03-27T11:43:05.396Z,1.95
2023-03-27T11:46:03.826Z,2.15
2023-03-27T11:48:53.359Z,3.35
2023-03-27T11:51:49.011Z,1.95
2023-03-27T11:54:35.226Z,2.50
2023-03-27T11:57:22.198Z,2.20
2023-03-27T12:00:43.381Z,1.60
2023-03-27T12:03:29.037Z,1.80
2023-03-27T12:06:35.554Z,1.80
2023-03-27T12:09:49.954Z,1.42
2023-03-27T12:13:03.897Z,2.13
2023-03-27T12:16:04.080Z,1.70
2023-03-27T12:19:29.741Z,2.38
2023-03-27T12:22:53.367Z,1.95
2023-03-27T12:28:42.794Z,2.05
2023-03-27T12:31:47.807Z,1.45
2023-03-27T12:34:45.283Z,1.42
2023-03-27T12:37:17.109Z,1.40
2023-03-27T12:39:56.855Z,2.20
2023-03-27T12:42:52.303Z,2.55
2023-03-27T12:45:28.909Z,1.60
2023-03-27T12:48:10.797Z,2.20
2023-03-27T12:50:48.709Z,1.63
2023-03-27T12:53:30.184Z,1.80
2023-03-27T12:56:17.755Z,1.00
2023-03-27T12:58:55.216Z,1.90
2023-03-27T13:02:07.225Z,1.85
2023-03-27T13:05:00.688Z,1.50
2023-03-27T13:07:37.421Z,1.73
2023-03-27T13:10:24.028Z,1.42
2023-03-27T13:13:34.487Z,1.40
2023-03-27T13:16:36.160Z,1.25
2023-03-27T13:19:37.593Z,2.00
2023-03-27T13:22:43.169Z,1.30
2023-03-27T13:25:45.090Z,1.30
2023-03-27T13:28:44.001Z,2.17
2023-03-27T13:31:46.731Z,2.15
2023-03-27T13:34:42.674Z,2.38
2023-03-27T13:37:36.657Z,2.28
2023-03-27T13:40:23.926Z,1.55
2023-03-27T13:43:29.518Z,1.73
2023-03-27T13:46:19.814Z,1.88
2023-03-27T13:49:23.826Z,1.52
2023-03-27T13:52:41.708Z,1.30
2023-03-27T13:55:18.154Z,1.50
2023-03-27T13:58:36.456Z,1.55
2023-03-27T14:01:17.433Z,1.70
2023-03-27T14:04:11.995Z,1.85
2023-03-27T14:07:17.761Z,1.23
2023-03-27T14:10:34.927Z,1.55
2023-03-27T14:13:49.602Z,1.83
2023-03-27T14:16:57.612Z,1.92
2023-03-27T14:20:01.153Z,1.50
2023-03-27T14:22:49.894Z,1.83
2023-03-27T14:25:30.875Z,1.65
2023-03-27T14:28:33.434Z,3.72
2023-03-27T14:31:09.287Z,2.03
2023-03-27T14:34:06.911Z,2.75
2023-03-27T14:36:47.999Z,1.90
2023-03-27T14:39:27.504Z,2.00
2023-03-27T14:42:04.505Z,2.22
2023-03-27T14:44:42.722Z,2.38
2023-03-27T14:47:19.207Z,1.80
2023-03-27T14:49:50.767Z,2.22
2023-03-27T14:52:38.488Z,2.05
2023-03-27T14:55:26.368Z,2.30
2023-03-27T14:58:19.929Z,4.13
2023-03-27T15:01:02.809Z,2.88
2023-03-27T15:03:39.611Z,2.03
2023-03-27T15:06:23.716Z,1.85
2023-03-27T15:08:59.419Z,2.08
2023-03-27T15:11:59.513Z,2.08
2023-03-27T15:14:35.752Z,1.85
2023-03-27T15:17:16.361Z,2.00
2023-03-27T15:19:51.261Z,2.00
2023-03-27T15:22:34.201Z,1.80
2023-03-27T15:25:34.425Z,1.65
2023-03-27T15:28:10.814Z,1.70
2023-03-27T15:30:54.696Z,1.60
2023-03-27T15:33:37.996Z,1.27
2023-03-27T15:36:26.786Z,1.40
2023-03-27T15:39:01.184Z,1.50
2023-03-27T15:41:33.472Z,1.77
2023-03-27T15:44:11.389Z,1.40
2023-03-27T15:46:59.262Z,1.67
2023-03-27T15:49:32.794Z,1.40
2023-03-27T15:52:31.986Z,1.30
2023-03-27T15:55:04.609Z,1.95
2023-03-27T15:57:41.954Z,1.40
2023-03-27T16:00:15.252Z,1.20
2023-03-27T16:02:45.049Z,1.60
2023-03-27T16:05:18.055Z,1.90
2023-03-27T16:07:51.674Z,1.65
2023-03-27T16:10:33.223Z,1.10
2023-03-27T16:13:07.915Z,1.10
2023-03-27T16:15:41.931Z,1.23
2023-03-27T16:18:44.979Z,1.10
2023-03-27T16:21:15.023Z,1.30
2023-03-27T16:23:46.364Z,1.38
2023-03-27T16:26:24.122Z,1.40
2023-03-27T16:28:57.517Z,1.27
2023-03-27T16:31:29.266Z,1.50
2023-03-27T16:33:58.847Z,1.92
2023-03-27T16:36:36.182Z,2.80
2023-03-27T16:39:10.402Z,1.80
2023-03-27T16:41:42.512Z,1.60
2023-03-27T16:44:15.018Z,1.48
2023-03-27T16:46:48.915Z,1.45
2023-03-27T16:49:20.378Z,1.70
2023-03-27T16:51:49.490Z,1.48
2023-03-27T16:54:18.730Z,1.90
2023-03-27T16:56:52.720Z,1.95
2023-03-27T16:59:26.937Z,1.90
2023-03-27T17:01:59.224Z,2.00
2023-03-27T17:04:28.924Z,2.03
2023-03-27T17:07:02.996Z,2.28
2023-03-27T17:09:34.476Z,1.73
2023-03-27T17:12:04.208Z,1.63
2023-03-27T17:14:38.224Z,1.92
2023-03-27T17:17:12.446Z,3.63
2023-03-27T17:19:41.793Z,2.00
2023-03-27T17:22:19.403Z,1.83
2023-03-27T17:24:56.044Z,1.63
2023-03-27T17:27:28.041Z,1.60
2023-03-27T17:30:02.052Z,1.90
2023-03-27T17:32:34.088Z,2.13
2023-03-27T17:35:09.486Z,1.80
2023-03-27T17:37:39.496Z,1.83
2023-03-27T17:40:13.468Z,1.20
2023-03-27T17:42:42.712Z,1.33
2023-03-27T17:45:35.839Z,1.77
2023-03-27T17:48:11.952Z,1.67
2023-03-27T17:50:58.023Z,2.10
2023-03-27T17:53:42.469Z,2.47
2023-03-27T17:56:17.618Z,2.33
2023-03-27T17:58:52.439Z,2.55
2023-03-27T18:01:25.509Z,2.15
2023-03-27T18:04:01.094Z,2.25
2023-03-27T18:09:07.420Z,1.60
2023-03-27T18:11:42.003Z,1.58
2023-03-27T18:14:14.008Z,1.92
2023-03-27T18:16:48.868Z,1.35
2023-03-27T18:19:26.393Z,1.90
2023-03-27T18:21:58.411Z,1.50
2023-03-27T18:24:28.286Z,1.52
2023-03-27T18:26:59.844Z,1.90
2023-03-27T18:32:05.470Z,1.30
2023-03-27T18:34:34.845Z,1.70
2023-03-27T18:37:07.265Z,1.30
2023-03-27T18:39:38.204Z,1.25
2023-03-27T18:42:11.171Z,1.15
2023-03-27T18:44:42.034Z,1.10
2023-03-27T18:47:17.146Z,1.10
2023-03-27T18:49:50.304Z,0.90
2023-03-27T18:52:19.912Z,1.30
2023-03-27T18:54:49.388Z,1.35
2023-03-27T18:57:22.215Z,0.85
2023-03-27T18:59:58.942Z,0.98
2023-03-27T19:02:32.718Z,1.10
2023-03-27T19:05:05.589Z,1.20
2023-03-27T19:07:37.497Z,0.90
2023-03-27T19:10:14.578Z,1.40
2023-03-27T19:12:50.819Z,1.13
2023-03-27T19:15:42.519Z,1.35
2023-03-27T19:18:55.924Z,1.25
2023-03-27T19:21:58.487Z,1.50
2023-03-27T19:24:34.242Z,1.20
2023-03-27T19:27:05.092Z,1.55
2023-03-27T19:29:39.220Z,1.20
2023-03-27T19:32:08.488Z,1.27
2023-03-27T19:34:42.911Z,1.25
2023-03-27T19:37:53.639Z,0.90
2023-03-27T19:41:16.384Z,1.00
2023-03-27T19:43:58.973Z,1.08
2023-03-27T19:46:30.449Z,1.02
2023-03-27T19:49:04.784Z,1.38
2023-03-27T19:51:53.215Z,1.00
2023-03-27T19:54:30.030Z,1.05
2023-03-27T19:57:02.534Z,1.20
2023-03-27T19:59:32.811Z,1.17
2023-03-27T20:02:03.307Z,1.20
2023-03-27T20:04:36.252Z,1.17
2023-03-27T20:07:08.237Z,1.10
2023-03-27T20:09:40.435Z,1.08
2023-03-27T20:12:13.336Z,1.20
2023-03-27T20:14:46.496Z,1.42
2023-03-27T20:17:27.951Z,1.38
2023-03-27T20:20:01.284Z,1.08
2023-03-27T20:22:40.679Z,1.10
2023-03-27T20:25:19.442Z,1.27
2023-03-27T20:27:50.895Z,1.17
2023-03-27T20:30:23.088Z,1.35
2023-03-27T20:32:56.525Z,1.50
2023-03-27T20:35:29.309Z,1.20
2023-03-27T20:38:06.069Z,1.35
2023-03-27T20:41:04.232Z,1.65
2023-03-27T20:43:37.786Z,1.27
2023-03-27T20:46:12.450Z,1.17
2023-03-27T20:48:53.962Z,1.00
2023-03-27T20:51:31.270Z,1.15
2023-03-27T20:54:10.424Z,1.50
2023-03-27T20:56:40.430Z,1.40
2023-03-27T20:59:13.982Z,1.40
2023-03-27T21:01:45.931Z,1.27
2023-03-27T21:04:15.871Z,1.10
2023-03-27T21:06:49.819Z,1.25
2023-03-27T21:09:23.077Z,1.08
2023-03-27T21:12:01.637Z,1.08
2023-03-27T21:14:31.292Z,1.10
2023-03-27T21:17:08.308Z,1.30
2023-03-27T21:19:42.950Z,1.35
2023-03-27T21:22:12.725Z,1.25
2023-03-27T21:24:44.553Z,1.40
2023-03-27T21:27:14.017Z,1.30
2023-03-27T21:29:43.694Z,1.67
2023-03-27T21:32:12.925Z,1.40
2023-03-27T21:34:42.260Z,1.35
2023-03-27T21:37:14.465Z,1.30
2023-03-27T21:39:48.748Z,1.25
2023-03-27T21:42:24.804Z,1.52
2023-03-27T21:44:57.586Z,1.13
2023-03-27T21:47:44.744Z,1.17
2023-03-27T21:50:20.888Z,1.50
2023-03-27T21:52:50.815Z,1.40
2023-03-27T21:55:20.730Z,1.17
2023-03-27T21:57:53.813Z,1.20
2023-03-27T22:00:28.389Z,1.00
2023-03-27T22:03:00.238Z,1.00
2023-03-27T22:05:35.739Z,1.13
2023-03-27T22:08:09.059Z,1.40
2023-03-27T22:10:41.053Z,0.90
2023-03-27T22:13:13.896Z,1.17
2023-03-27T22:15:48.197Z,1.23
2023-03-27T22:18:21.454Z,1.48
2023-03-27T22:20:51.498Z,1.52
2023-03-27T22:23:22.280Z,1.33
2023-03-27T22:25:53.976Z,1.35
2023-03-27T22:28:23.420Z,1.05
2023-03-27T22:30:55.977Z,1.65
2023-03-27T22:33:29.074Z,1.80
2023-03-27T22:36:01.868Z,1.30
2023-03-27T22:38:36.269Z,1.10
2023-03-27T22:41:12.832Z,1.60
2023-03-27T22:43:44.596Z,1.45
2023-03-27T22:48:53.614Z,1.30
2023-03-27T22:51:31.093Z,1.20
2023-03-27T22:54:05.293Z,1.40
2023-03-27T22:56:37.439Z,1.38
2023-03-27T22:59:07.481Z,1.40
2023-03-27T23:01:37.692Z,1.42
2023-03-27T23:04:08.087Z,1.30
2023-03-27T23:06:46.998Z,1.30
2023-03-27T23:11:50.013Z,1.38
2023-03-27T23:14:22.418Z,1.15
2023-03-27T23:16:57.405Z,1.40
2023-03-27T23:19:31.711Z,1.27
2023-03-27T23:22:01.332Z,1.50
2023-03-27T23:24:33.096Z,1.45
2023-03-27T23:27:06.063Z,1.40
2023-03-27T23:29:37.963Z,1.63
2023-03-27T23:32:10.434Z,1.60
2023-03-27T23:34:39.928Z,1.60
2023-03-27T23:37:09.426Z,1.70
2023-03-27T23:39:42.446Z,1.50
2023-03-27T23:44:52.490Z,1.50
2023-03-27T23:47:22.714Z,1.70
2023-03-27T23:49:54.120Z,1.52
2023-03-27T23:52:27.415Z,1.70
2023-03-27T23:54:56.788Z,1.90
2023-03-27T23:57:26.172Z,1.60
2023-03-27T23:59:57.682Z,1.60
